createdAt,value
2022-07-30T11:38:19.596Z,1.90
2022-07-30T11:40:49.234Z,1.50
2022-07-30T11:43:36.931Z,1.88
2022-07-30T11:46:29.602Z,1.80
2022-07-30T11:48:57.019Z,1.80
2022-07-30T11:51:24.484Z,1.73
2022-07-30T11:54:05.516Z,1.60
2022-07-30T11:56:34.006Z,1.70
2022-07-30T11:59:05.497Z,1.92
2022-07-30T12:01:33.546Z,1.55
2022-07-30T12:04:09.296Z,1.52
2022-07-30T12:06:46.621Z,1.50
2022-07-30T12:09:22.232Z,1.10
2022-07-30T12:11:49.413Z,1.40
2022-07-30T12:14:16.435Z,1.30
2022-07-30T12:16:53.244Z,1.67
2022-07-30T12:19:20.602Z,1.67
2022-07-30T12:21:58.378Z,1.70
2022-07-30T12:24:26.750Z,1.50
2022-07-30T12:27:07.072Z,1.63
2022-07-30T12:29:35.317Z,1.75
2022-07-30T12:32:02.252Z,1.50
2022-07-30T12:34:29.305Z,1.65
2022-07-30T12:37:06.574Z,1.40
2022-07-30T12:39:33.382Z,1.23
2022-07-30T12:42:00.538Z,1.30
2022-07-30T12:44:38.079Z,1.52
2022-07-30T12:47:07.900Z,1.40
2022-07-30T12:49:36.719Z,1.27
2022-07-30T12:52:09.594Z,1.67
2022-07-30T12:54:39.158Z,1.67
2022-07-30T12:57:06.928Z,2.42
2022-07-30T12:59:35.326Z,1.80
2022-07-30T13:02:03.632Z,2.00
2022-07-30T13:04:31.864Z,2.00
2022-07-30T13:07:11.776Z,1.90
2022-07-30T13:09:40.188Z,2.03
2022-07-30T13:12:07.575Z,1.77
2022-07-30T13:14:34.615Z,1.92
2022-07-30T13:17:04.293Z,1.60
2022-07-30T13:19:31.652Z,2.13
2022-07-30T13:21:58.505Z,1.85
2022-07-30T13:24:25.575Z,2.13
2022-07-30T13:26:52.959Z,2.33
2022-07-30T13:29:19.870Z,2.35
2022-07-30T13:31:46.965Z,2.40
2022-07-30T13:34:14.076Z,2.17
2022-07-30T13:36:41.730Z,2.20
2022-07-30T13:39:08.763Z,2.08
2022-07-30T13:41:38.480Z,1.80
2022-07-30T13:44:05.606Z,1.63
2022-07-30T13:46:34.734Z,1.83
2022-07-30T13:49:01.734Z,2.00
2022-07-30T13:51:28.704Z,2.00
2022-07-30T13:53:55.685Z,2.00
2022-07-30T13:56:22.639Z,2.10
2022-07-30T13:58:50.312Z,2.20
2022-07-30T14:01:18.328Z,2.65
2022-07-30T14:03:50.535Z,2.20
2022-07-30T14:06:19.285Z,2.03
2022-07-30T14:08:48.948Z,9.57
2022-07-30T14:11:16.835Z,6.95
2022-07-30T14:13:44.025Z,8.52
2022-07-30T14:16:35.283Z,7.82
2022-07-30T14:18:57.906Z,6.82
2022-07-30T14:21:25.382Z,8.07
2022-07-30T14:23:53.199Z,10.13
2022-07-30T14:26:20.177Z,10.98
2022-07-30T14:28:47.239Z,6.78
2022-07-30T14:31:16.996Z,5.53
2022-07-30T14:33:43.983Z,6.47
2022-07-30T14:36:11.748Z,14.30
2022-07-30T14:38:39.934Z,28.95
2022-07-30T14:41:08.843Z,22.98
2022-07-30T14:43:35.886Z,27.05
2022-07-30T14:46:03.121Z,32.83
2022-07-30T14:48:30.098Z,37.05
2022-07-30T14:51:14.356Z,58.67
2022-07-30T14:53:43.757Z,66.55
2022-07-30T14:56:14.336Z,57.72
2022-07-30T14:58:44.420Z,45.08
2022-07-30T15:01:16.050Z,34.42
2022-07-30T15:03:44.511Z,24.00
2022-07-30T15:06:12.853Z,15.60
2022-07-30T15:08:39.755Z,13.00
2022-07-30T15:11:07.896Z,9.45
2022-07-30T15:13:35.728Z,9.68
2022-07-30T15:16:03.264Z,8.27
2022-07-30T15:18:30.119Z,7.30
2022-07-30T15:20:57.171Z,7.05
2022-07-30T15:23:23.986Z,5.85
2022-07-30T15:25:51.017Z,4.63
2022-07-30T15:28:17.844Z,4.25
2022-07-30T15:30:44.833Z,3.50
2022-07-30T15:33:11.719Z,3.13
2022-07-30T15:35:38.630Z,3.13
2022-07-30T15:38:05.612Z,3.20
2022-07-30T15:40:34.438Z,3.78
2022-07-30T15:43:01.474Z,5.28
2022-07-30T15:45:50.966Z,7.50
2022-07-30T15:48:27.322Z,9.00
2022-07-30T15:51:02.109Z,6.38
2022-07-30T15:55:57.784Z,4.00
2022-07-30T15:58:24.700Z,2.80
2022-07-30T16:00:51.988Z,2.72
2022-07-30T16:03:18.861Z,2.00
2022-07-30T16:05:51.617Z,1.90
2022-07-30T16:08:20.727Z,1.63
2022-07-30T16:10:48.331Z,1.45
2022-07-30T16:13:15.499Z,1.35
2022-07-30T16:15:42.430Z,1.58
2022-07-30T16:18:09.479Z,1.58
2022-07-30T16:20:36.314Z,1.20
2022-07-30T16:23:03.172Z,1.20
2022-07-30T16:25:30.128Z,1.60
2022-07-30T16:27:57.709Z,1.63
2022-07-30T16:30:27.501Z,1.50
2022-07-30T16:32:56.480Z,1.42
2022-07-30T16:35:23.818Z,1.63
2022-07-30T16:37:51.158Z,2.25
2022-07-30T16:40:18.188Z,1.80
2022-07-30T16:42:45.240Z,1.65
2022-07-30T16:45:13.347Z,6.10
2022-07-30T16:47:40.282Z,4.15
2022-07-30T16:50:07.487Z,2.88
2022-07-30T16:52:34.470Z,3.70
2022-07-30T16:55:04.348Z,3.47
2022-07-30T16:57:31.227Z,2.30
2022-07-30T16:59:58.436Z,2.17
2022-07-30T17:02:25.492Z,1.90
2022-07-30T17:04:52.784Z,1.70
2022-07-30T17:07:19.649Z,1.80
2022-07-30T17:09:52.012Z,1.60
2022-07-30T17:12:27.139Z,1.67
2022-07-30T17:14:54.966Z,1.38
2022-07-30T17:17:21.866Z,1.60
2022-07-30T17:19:48.810Z,1.65
2022-07-30T17:22:15.926Z,2.30
2022-07-30T17:24:42.933Z,2.13
2022-07-30T17:27:09.776Z,2.00
2022-07-30T17:29:48.308Z,1.77
2022-07-30T17:32:16.944Z,1.88
2022-07-30T17:34:43.867Z,1.50
2022-07-30T17:37:11.001Z,1.70
2022-07-30T17:40:26.947Z,1.85
2022-07-30T17:42:26.163Z,1.58
2022-07-30T17:44:53.260Z,1.50
2022-07-30T17:47:20.104Z,1.67
2022-07-30T17:49:47.043Z,1.60
2022-07-30T17:52:14.108Z,1.48
2022-07-30T17:54:41.222Z,1.42
2022-07-30T17:57:08.434Z,1.10
2022-07-30T17:59:35.410Z,1.20
2022-07-30T18:02:04.294Z,1.33
2022-07-30T18:04:31.640Z,1.15
2022-07-30T18:06:58.554Z,1.17
2022-07-30T18:09:25.371Z,1.40
2022-07-30T18:11:52.402Z,1.10
2022-07-30T18:14:19.478Z,1.30
2022-07-30T18:16:46.414Z,1.40
2022-07-30T18:19:22.631Z,1.40
2022-07-30T18:21:54.661Z,1.30
2022-07-30T18:24:24.575Z,1.30
2022-07-30T18:26:51.918Z,1.00
2022-07-30T18:29:18.791Z,1.25
2022-07-30T18:31:48.124Z,1.40
2022-07-30T18:34:15.426Z,1.17
2022-07-30T18:36:42.452Z,1.15
2022-07-30T18:39:09.424Z,1.20
2022-07-30T18:41:36.471Z,1.20
2022-07-30T18:44:03.600Z,1.10
2022-07-30T18:46:30.506Z,1.40
2022-07-30T18:48:57.985Z,1.10
2022-07-30T18:51:25.402Z,1.30
2022-07-30T18:53:53.817Z,1.30
2022-07-30T18:56:20.931Z,1.42
2022-07-30T18:58:47.900Z,1.58
2022-07-30T19:01:14.946Z,1.40
2022-07-30T19:03:41.800Z,1.48
2022-07-30T19:06:08.809Z,1.20
2022-07-30T19:08:35.937Z,1.40
2022-07-30T19:11:02.851Z,1.50
2022-07-30T19:13:29.916Z,1.40
2022-07-30T19:15:57.001Z,1.52
2022-07-30T19:18:24.068Z,1.60
2022-07-30T19:20:51.583Z,1.88
2022-07-30T19:23:18.632Z,2.00
2022-07-30T19:25:45.584Z,1.58
2022-07-30T19:28:13.980Z,1.60
2022-07-30T19:30:41.076Z,1.80
2022-07-30T19:33:14.665Z,1.50
2022-07-30T19:35:42.870Z,1.42
2022-07-30T19:38:11.823Z,1.60
2022-07-30T19:40:42.304Z,1.70
2022-07-30T19:43:10.220Z,1.95
2022-07-30T19:45:47.601Z,2.00
2022-07-30T19:48:29.055Z,2.05
2022-07-30T19:50:58.820Z,2.15
2022-07-30T19:53:27.945Z,1.77
2022-07-30T19:56:01.847Z,1.90
2022-07-30T19:58:31.054Z,1.50
2022-07-30T20:00:57.977Z,1.65
2022-07-30T20:03:29.412Z,1.70
2022-07-30T20:06:00.115Z,1.50
2022-07-30T20:08:29.404Z,1.63
2022-07-30T20:10:57.412Z,1.50
2022-07-30T20:13:44.147Z,1.80
2022-07-30T20:16:14.205Z,1.95
2022-07-30T20:18:42.860Z,1.58
2022-07-30T20:21:15.049Z,1.80
2022-07-30T20:23:42.864Z,1.60
2022-07-30T20:26:13.707Z,1.70
2022-07-30T20:28:42.579Z,1.80
2022-07-30T20:31:10.597Z,2.10
2022-07-30T20:33:39.218Z,1.90
2022-07-30T20:36:09.705Z,2.00
2022-07-30T20:38:38.967Z,1.90
2022-07-30T20:41:10.309Z,2.15
2022-07-30T20:43:51.875Z,1.90
2022-07-30T20:46:23.360Z,1.77
2022-07-30T20:48:52.252Z,1.60
2022-07-30T20:51:19.875Z,1.80
2022-07-30T20:53:59.594Z,1.88
2022-07-30T20:56:26.865Z,2.40
2022-07-30T20:58:53.783Z,2.10
2022-07-30T21:01:22.514Z,1.80
2022-07-30T21:03:56.002Z,2.28
2022-07-30T21:06:24.743Z,2.03
2022-07-30T21:08:53.610Z,2.00
2022-07-30T21:11:22.533Z,1.63
2022-07-30T21:13:49.337Z,1.67
2022-07-30T21:16:16.682Z,1.70
2022-07-30T21:18:49.760Z,1.48
2022-07-30T21:21:30.843Z,1.92
2022-07-30T21:24:15.765Z,1.57
2022-07-30T21:26:45.083Z,1.70
2022-07-30T21:29:16.652Z,2.00
2022-07-30T21:32:01.425Z,2.00
2022-07-30T21:34:42.121Z,2.20
2022-07-30T21:37:09.574Z,2.08
2022-07-30T21:39:40.186Z,2.20
2022-07-30T21:42:08.742Z,2.13
2022-07-30T21:44:37.525Z,2.00
2022-07-30T21:47:10.044Z,2.13
2022-07-30T21:49:40.578Z,1.80
2022-07-30T21:52:11.883Z,1.88
2022-07-30T21:57:26.441Z,2.75
2022-07-30T21:59:57.986Z,2.80
2022-07-30T22:02:25.238Z,2.63
2022-07-30T22:04:53.645Z,2.50
2022-07-30T22:07:21.805Z,2.38
2022-07-30T22:09:49.268Z,1.98
2022-07-30T22:12:18.220Z,2.58
2022-07-30T22:14:46.891Z,2.40
2022-07-30T22:17:23.871Z,2.25
2022-07-30T22:20:04.523Z,2.10
2022-07-30T22:22:37.555Z,2.00
2022-07-30T22:25:09.418Z,2.33
2022-07-30T22:27:56.605Z,2.80
2022-07-30T22:30:29.565Z,2.40
2022-07-30T22:33:15.081Z,2.22
2022-07-30T22:35:46.634Z,2.10
2022-07-30T22:38:14.491Z,2.10
2022-07-30T22:40:42.720Z,2.20
2022-07-30T22:43:15.788Z,1.83
2022-07-30T22:45:48.532Z,2.00
2022-07-30T22:48:17.497Z,1.92
2022-07-30T22:50:46.490Z,2.10
2022-07-30T22:54:03.203Z,2.00
2022-07-30T22:56:03.192Z,1.77
2022-07-30T22:58:30.724Z,2.00
2022-07-30T23:00:57.821Z,1.80
2022-07-30T23:03:24.699Z,2.25
2022-07-30T23:05:58.972Z,2.05
2022-07-30T23:08:38.265Z,2.00
2022-07-30T23:11:05.339Z,1.80
2022-07-30T23:13:32.448Z,2.00
2022-07-30T23:15:59.372Z,1.90
2022-07-30T23:18:26.492Z,1.83
2022-07-30T23:20:55.075Z,1.85
2022-07-30T23:23:25.339Z,2.13
2022-07-30T23:25:52.163Z,1.98
2022-07-30T23:28:19.026Z,2.30
2022-07-30T23:30:45.906Z,2.72
2022-07-30T23:33:12.859Z,2.70
2022-07-30T23:35:39.757Z,2.75
2022-07-30T23:38:06.843Z,2.60
2022-07-30T23:40:33.984Z,2.70
2022-07-30T23:43:00.908Z,2.90
2022-07-30T23:45:27.799Z,2.70
2022-07-30T23:48:02.719Z,2.58
2022-07-30T23:50:32.492Z,2.30
2022-07-30T23:53:01.794Z,2.20
2022-07-30T23:55:29.694Z,2.08
2022-07-30T23:57:57.914Z,2.20
